Time;durP1;ratioP1;P1;durP2;ratioP2;P2;SDS_P1;SDS_P2;PMS_P1;PMS_P2;Temp;Humidity;BMP_temperature;BMP_pressure;BME280_temperature;BME280_humidity;BME280_pressure;Samples;Min_cycle;Max_cycle;Signal;HPM_P1;HPM_P2
2022/07/18 00:01:51;;;;;;;2.05;1.60;;;;;;;15.78;48.25;101761.16;4994727;28;20052;-29
2022/07/18 00:04:16;;;;;;;2.08;1.38;;;;;;;15.73;47.95;101763.88;5001041;28;20050;-29
2022/07/18 00:06:41;;;;;;;5.30;1.50;;;;;;;15.72;47.90;101764.78;4975560;28;20094;-29
2022/07/18 00:09:07;;;;;;;1.70;1.13;;;;;;;15.66;47.65;101764.84;4974842;28;20022;-29
2022/07/18 00:11:32;;;;;;;1.85;1.40;;;;;;;15.60;47.75;101759.59;4973851;28;20035;-29
2022/07/18 00:13:58;;;;;;;1.55;1.38;;;;;;;15.59;47.70;101755.19;4973704;28;20499;-29
2022/07/18 00:16:23;;;;;;;3.35;1.42;;;;;;;15.50;47.57;101759.75;4961603;28;20062;-29
2022/07/18 00:18:49;;;;;;;2.75;1.50;;;;;;;15.40;47.79;101752.75;4992972;28;20517;-29
2022/07/18 00:21:15;;;;;;;1.70;1.60;;;;;;;15.34;48.06;101748.41;5008892;28;20030;-29
2022/07/18 00:23:41;;;;;;;2.47;1.67;;;;;;;15.31;48.17;101747.56;4992827;28;20029;-29
2022/07/18 00:26:06;;;;;;;2.80;1.55;;;;;;;15.27;48.41;101755.56;4994162;28;20386;-29
2022/07/18 00:28:31;;;;;;;3.00;1.75;;;;;;;15.21;48.54;101752.97;4994058;28;20038;-29
2022/07/18 00:30:57;;;;;;;2.45;1.60;;;;;;;15.20;48.32;101761.00;4986935;28;20053;-28
2022/07/18 00:33:22;;;;;;;2.78;1.55;;;;;;;15.17;48.51;101761.88;4983594;28;20109;-28
2022/07/18 00:35:48;;;;;;;5.28;1.95;;;;;;;15.13;48.19;101760.16;4992801;28;20109;-28
2022/07/18 00:38:14;;;;;;;2.92;1.50;;;;;;;15.07;48.30;101757.59;4992753;28;20022;-28
2022/07/18 00:40:39;;;;;;;2.15;1.50;;;;;;;15.07;48.46;101749.63;4993792;28;20023;-29
2022/07/18 00:43:04;;;;;;;2.35;1.67;;;;;;;15.06;48.28;101756.69;4993341;28;20026;-29
2022/07/18 00:45:30;;;;;;;2.38;1.40;;;;;;;15.03;48.55;101763.84;4993013;28;20482;-29
2022/07/18 00:47:55;;;;;;;3.00;1.33;;;;;;;14.97;48.42;101767.44;4993364;28;20043;-28
2022/07/18 00:50:21;;;;;;;2.83;1.42;;;;;;;14.90;48.73;101769.25;4992814;28;20043;-29
2022/07/18 00:52:47;;;;;;;1.85;1.58;;;;;;;14.92;48.66;101762.16;4993178;28;20482;-29
2022/07/18 00:55:13;;;;;;;3.05;1.38;;;;;;;14.90;48.69;101773.69;4993578;28;20050;-28
2022/07/18 00:57:39;;;;;;;1.90;1.67;;;;;;;14.84;48.84;101770.19;4996645;28;20527;-31
2022/07/18 01:02:52;;;;;;;3.60;1.60;;;;;;;14.70;48.98;101766.72;4992917;28;20037;-31
2022/07/18 01:05:17;;;;;;;1.88;1.42;;;;;;;14.70;49.03;101774.69;4975893;28;20015;-31
2022/07/18 01:07:42;;;;;;;2.15;1.40;;;;;;;14.67;48.93;101772.09;4973823;28;20073;-31
2022/07/18 01:10:08;;;;;;;1.50;1.40;;;;;;;14.65;49.23;101774.75;4974066;28;20030;-31
2022/07/18 01:12:33;;;;;;;1.50;1.40;;;;;;;14.63;48.67;101771.22;4973766;28;20030;-29
2022/07/18 01:14:59;;;;;;;2.38;1.77;;;;;;;14.60;48.75;101772.13;4985341;28;20022;-30
2022/07/18 01:17:24;;;;;;;4.65;1.30;;;;;;;14.54;48.75;101761.56;4992544;28;20046;-31
2022/07/18 01:19:50;;;;;;;4.72;1.65;;;;;;;14.50;48.67;101759.81;4975671;28;20030;-31
2022/07/18 01:22:17;;;;;;;2.15;1.48;;;;;;;14.44;48.83;101755.44;4993380;28;20030;-31
2022/07/18 01:24:43;;;;;;;2.33;1.60;;;;;;;14.42;49.24;101767.88;4993152;28;20514;-31
2022/07/18 01:27:10;;;;;;;2.95;1.40;;;;;;;14.35;49.20;101767.03;4993140;28;20040;-31
2022/07/18 01:29:35;;;;;;;2.80;1.40;;;;;;;14.29;49.16;101767.06;4974809;28;20058;-31
2022/07/18 01:32:07;;;;;;;1.85;1.52;;;;;;;14.30;49.42;101770.63;4973211;28;20104;-31
2022/07/18 01:34:32;;;;;;;2.95;1.63;;;;;;;14.26;49.10;101771.50;4971920;28;20030;-31
2022/07/18 01:36:58;;;;;;;4.35;1.77;;;;;;;14.23;49.49;101780.38;4973117;28;20039;-31
2022/07/18 01:39:24;;;;;;;1.83;1.35;;;;;;;14.19;49.38;101770.66;4973371;28;20049;-31
2022/07/18 01:42:00;;;;;;;3.70;1.83;;;;;;;14.17;49.44;101760.06;4973898;28;20527;-31
2022/07/18 01:44:26;;;;;;;1.80;1.38;;;;;;;14.13;49.46;101765.44;4992238;28;20025;-31
2022/07/18 01:46:52;;;;;;;3.97;1.33;;;;;;;14.12;49.36;101759.22;4992400;28;20018;-31
2022/07/18 01:49:18;;;;;;;3.55;1.67;;;;;;;14.08;49.31;101755.69;4980692;28;20086;-31
2022/07/18 01:51:48;;;;;;;3.47;1.48;;;;;;;14.07;49.49;101755.75;4973004;28;20498;-30
2022/07/18 01:54:14;;;;;;;1.63;1.15;;;;;;;14.04;49.64;101753.09;4972805;28;20026;-31
2022/07/18 01:56:39;;;;;;;1.98;1.77;;;;;;;13.98;49.68;101757.53;4978292;28;20057;-31
2022/07/18 01:59:04;;;;;;;2.45;1.65;;;;;;;13.93;49.88;101746.09;4992382;28;20109;-31
2022/07/18 02:01:30;;;;;;;2.15;1.30;;;;;;;13.91;49.77;101750.50;5007464;28;20030;-31
2022/07/18 02:03:55;;;;;;;2.22;1.38;;;;;;;13.87;50.03;101746.09;4985564;28;20022;-31
2022/07/18 02:06:21;;;;;;;2.30;1.40;;;;;;;13.87;50.47;101764.66;4973213;28;20029;-31
2022/07/18 02:08:46;;;;;;;3.05;1.75;;;;;;;13.84;50.02;101767.34;4971771;28;20062;-31
2022/07/18 02:11:11;;;;;;;2.00;1.70;;;;;;;13.88;50.09;101765.56;4979903;28;20045;-31
2022/07/18 02:13:37;;;;;;;1.52;1.42;;;;;;;13.84;50.34;101756.75;4990673;28;20030;-31
2022/07/18 02:16:03;;;;;;;2.50;1.70;;;;;;;13.81;50.33;101749.66;4992199;28;20038;-31
2022/07/18 02:18:31;;;;;;;3.08;1.60;;;;;;;13.76;50.02;101759.44;4990895;28;20034;-31
2022/07/18 02:20:57;;;;;;;2.55;1.73;;;;;;;13.70;50.30;101752.38;4992245;28;20038;-31
2022/07/18 02:23:23;;;;;;;1.95;1.42;;;;;;;13.70;49.86;101757.69;4992258;28;20097;-31
2022/07/18 02:25:48;;;;;;;3.53;1.50;;;;;;;13.68;49.88;101754.19;4990087;28;20022;-31
2022/07/18 02:28:13;;;;;;;2.92;1.88;;;;;;;13.64;50.33;101757.72;4990789;28;20390;-31
2022/07/18 02:30:39;;;;;;;2.85;1.33;;;;;;;13.59;49.97;101762.16;4992137;28;20395;-31
2022/07/18 02:33:04;;;;;;;3.00;1.50;;;;;;;13.55;50.40;101749.81;4992037;28;20105;-31
2022/07/18 02:35:31;;;;;;;2.40;1.52;;;;;;;13.46;50.17;101746.28;4992128;28;20023;-31
2022/07/18 02:37:56;;;;;;;2.22;1.60;;;;;;;13.41;50.60;101745.41;4974238;28;20034;-31
2022/07/18 02:40:21;;;;;;;2.15;1.70;;;;;;;13.41;50.36;101745.41;4991837;28;20486;-30
2022/07/18 02:42:47;;;;;;;2.22;1.38;;;;;;;13.39;50.76;101747.19;4991613;28;20026;-31
2022/07/18 02:45:12;;;;;;;2.75;1.45;;;;;;;13.37;50.47;101748.94;4992425;28;20026;-31
2022/07/18 02:47:38;;;;;;;3.38;1.67;;;;;;;13.33;50.59;101744.56;4992110;28;20478;-31
2022/07/18 02:50:03;;;;;;;1.73;1.42;;;;;;;13.31;50.64;101744.56;4992923;28;20050;-31
2022/07/18 02:52:29;;;;;;;2.55;1.60;;;;;;;13.26;50.91;101746.34;4992119;28;20383;-31
2022/07/18 02:54:56;;;;;;;1.27;1.20;;;;;;;13.26;51.46;101754.28;4983351;28;20093;-31
2022/07/18 02:57:22;;;;;;;2.45;1.73;;;;;;;13.27;51.13;101744.59;4975279;28;20027;-31
2022/07/18 02:59:47;;;;;;;2.42;1.80;;;;;;;13.23;50.94;101740.19;4975876;28;20033;-31
2022/07/18 03:02:12;;;;;;;2.42;1.55;;;;;;;13.23;51.20;101733.09;4977553;28;20122;-31
2022/07/18 03:04:38;;;;;;;2.97;1.60;;;;;;;13.20;51.38;101743.69;4989177;28;20065;-31
2022/07/18 03:07:03;;;;;;;2.33;1.67;;;;;;;13.17;51.15;101741.94;4995353;28;20157;-31
2022/07/18 03:09:30;;;;;;;1.77;1.40;;;;;;;13.13;51.38;101742.84;4996065;28;20030;-31
2022/07/18 03:11:56;;;;;;;2.00;1.50;;;;;;;13.14;51.46;101739.31;4995593;28;20437;-31
2022/07/18 03:14:22;;;;;;;2.13;1.50;;;;;;;13.11;51.17;101746.38;4994746;28;20033;-31
2022/07/18 03:16:48;;;;;;;2.15;1.50;;;;;;;13.09;51.24;101754.34;4994191;28;20120;-32
2022/07/18 03:19:14;;;;;;;4.93;1.42;;;;;;;13.13;51.33;101742.84;4995114;28;20027;-31
2022/07/18 03:21:39;;;;;;;5.15;1.75;;;;;;;13.06;51.28;101743.75;4994156;28;20022;-31
2022/07/18 03:24:04;;;;;;;4.43;1.73;;;;;;;13.08;51.30;101755.22;4978692;28;20058;-31
2022/07/18 03:26:30;;;;;;;3.85;1.80;;;;;;;13.02;51.41;101757.88;4985672;28;20026;-31
2022/07/18 03:28:55;;;;;;;3.53;1.40;;;;;;;13.04;51.40;101750.84;4995763;28;20517;-31
2022/07/18 03:31:21;;;;;;;2.28;1.55;;;;;;;13.05;51.28;101745.53;4995763;28;20034;-31
2022/07/18 03:33:46;;;;;;;1.40;1.30;;;;;;;12.94;51.21;101755.25;4995721;28;20022;-31
2022/07/18 03:36:12;;;;;;;1.48;1.23;;;;;;;12.99;51.38;101752.59;4995456;28;20100;-31
2022/07/18 03:38:37;;;;;;;1.55;1.45;;;;;;;12.94;51.48;101750.84;4995392;28;20109;-31
2022/07/18 03:41:03;;;;;;;2.20;1.70;;;;;;;12.93;51.63;101762.31;4983313;28;20042;-31
2022/07/18 03:43:29;;;;;;;2.10;1.90;;;;;;;12.88;52.29;101757.91;4975841;28;20034;-31
2022/07/18 03:45:54;;;;;;;1.60;1.50;;;;;;;12.90;51.85;101764.97;4974618;28;20034;-32
2022/07/18 03:48:20;;;;;;;2.63;2.38;;;;;;;12.90;52.13;101759.66;4974904;28;20494;-31
2022/07/18 03:50:46;;;;;;;1.50;1.40;;;;;;;12.94;51.61;101765.84;4974496;28;20534;-31
2022/07/18 03:53:11;;;;;;;1.75;1.60;;;;;;;12.85;51.89;101761.44;4979240;28;20084;-31
2022/07/18 03:55:37;;;;;;;1.63;1.45;;;;;;;12.87;52.27;101770.25;4993798;28;20022;-31
2022/07/18 03:58:02;;;;;;;2.92;1.80;;;;;;;12.85;52.43;101763.19;4994864;28;20065;-31
2022/07/18 04:00:27;;;;;;;2.95;1.58;;;;;;;12.78;52.09;101760.59;4995136;28;20033;-31
2022/07/18 04:02:53;;;;;;;5.30;2.00;;;;;;;12.73;51.77;101758.81;4992948;28;20030;-31
2022/07/18 04:05:18;;;;;;;1.80;1.55;;;;;;;12.70;52.18;101760.56;4975960;28;20122;-32
2022/07/18 04:07:44;;;;;;;4.40;1.65;;;;;;;12.69;52.05;101772.06;4973874;28;20061;-32
2022/07/18 04:10:11;;;;;;;2.47;1.38;;;;;;;12.68;52.32;101764.97;4975043;28;20034;-31
2022/07/18 04:12:47;;;;;;;1.83;1.73;;;;;;;12.70;52.21;101762.31;4973453;28;20035;-32
2022/07/18 04:15:12;;;;;;;3.58;1.60;;;;;;;12.69;52.72;101764.09;4974991;28;20030;-32
2022/07/18 04:17:38;;;;;;;1.95;1.85;;;;;;;12.70;52.57;101767.63;4985129;28;20029;-32
2022/07/18 04:20:03;;;;;;;3.30;2.00;;;;;;;12.72;53.20;101764.97;5013396;28;20028;-31
2022/07/18 04:22:29;;;;;;;2.92;1.70;;;;;;;12.75;52.45;101764.97;5013604;28;20030;-32
2022/07/18 04:24:54;;;;;;;5.18;2.00;;;;;;;12.73;52.21;101764.13;5013544;28;20081;-32
2022/07/18 04:27:19;;;;;;;2.30;1.80;;;;;;;12.73;52.50;101761.47;5012873;28;20113;-31
2022/07/18 04:29:45;;;;;;;2.50;1.40;;;;;;;12.70;52.75;101757.94;5013714;28;20034;-32
2022/07/18 04:32:10;;;;;;;2.33;1.67;;;;;;;12.76;52.91;101756.16;5003177;28;20033;-31
2022/07/18 04:34:35;;;;;;;3.55;1.63;;;;;;;12.82;53.12;101761.44;4993208;28;20022;-32
2022/07/18 04:37:01;;;;;;;2.95;2.08;;;;;;;12.91;53.46;101761.41;4993648;28;20026;-32
2022/07/18 04:39:26;;;;;;;2.72;1.63;;;;;;;12.94;53.14;101764.06;4993853;28;20038;-32
2022/07/18 04:41:51;;;;;;;1.90;1.70;;;;;;;12.91;52.76;101753.47;4975923;28;20031;-31
2022/07/18 04:44:17;;;;;;;1.77;1.65;;;;;;;12.91;52.76;101752.63;5004630;28;20040;-32
2022/07/18 04:46:42;;;;;;;2.00;1.85;;;;;;;12.94;52.82;101748.19;5012560;28;20025;-30
2022/07/18 04:49:07;;;;;;;3.33;1.70;;;;;;;13.00;52.57;101749.06;5012857;28;20033;-31
2022/07/18 04:51:33;;;;;;;2.65;1.80;;;;;;;13.03;52.97;101741.09;5013175;28;20025;-31
2022/07/18 04:53:58;;;;;;;2.30;1.70;;;;;;;13.08;52.93;101728.75;4995439;28;20018;-32
2022/07/18 04:56:24;;;;;;;1.80;1.60;;;;;;;13.11;52.67;101720.81;5013169;28;20056;-32
2022/07/18 04:58:49;;;;;;;2.78;1.98;;;;;;;13.17;52.71;101723.41;5012808;28;20022;-32
2022/07/18 05:01:15;;;;;;;4.18;1.83;;;;;;;13.21;52.54;101732.25;5013030;28;20032;-32
2022/07/18 05:03:40;;;;;;;1.58;1.42;;;;;;;13.29;52.56;101729.56;4989974;28;20506;-31
2022/07/18 05:06:06;;;;;;;1.83;1.73;;;;;;;13.31;52.25;101730.44;5012811;28;20405;-32
2022/07/18 05:08:31;;;;;;;1.88;1.67;;;;;;;13.34;52.54;101735.75;5012992;28;20057;-32
2022/07/18 05:10:56;;;;;;;2.30;1.92;;;;;;;13.39;52.38;101731.28;5012223;28;20105;-32
2022/07/18 05:13:22;;;;;;;3.80;1.80;;;;;;;13.43;52.42;101737.44;5012720;28;20034;-32
2022/07/18 05:15:47;;;;;;;3.83;1.90;;;;;;;13.50;52.34;101733.06;5012617;28;20018;-32
2022/07/18 05:18:13;;;;;;;2.10;1.80;;;;;;;13.54;52.38;101725.06;4995583;28;20567;-32
2022/07/18 05:20:38;;;;;;;2.92;1.90;;;;;;;13.62;52.33;101732.09;4991500;28;20041;-32
2022/07/18 05:23:03;;;;;;;1.70;1.60;;;;;;;13.67;52.17;101715.28;4992753;28;20037;-32
2022/07/18 05:25:29;;;;;;;2.92;1.80;;;;;;;13.74;51.84;101726.72;4992698;28;20105;-32
2022/07/18 05:27:54;;;;;;;1.80;1.70;;;;;;;13.81;52.15;101723.16;4993034;28;20034;-32
2022/07/18 05:30:20;;;;;;;2.20;1.80;;;;;;;13.87;52.30;101730.19;4992915;28;20126;-32
2022/07/18 05:32:47;;;;;;;1.85;1.75;;;;;;;13.95;52.20;101725.75;4991658;28;20042;-32
2022/07/18 05:35:12;;;;;;;1.60;1.50;;;;;;;14.04;52.25;101723.91;4984816;28;20039;-32
2022/07/18 05:37:38;;;;;;;4.03;1.60;;;;;;;14.11;51.79;101717.69;4973010;28;20507;-32
2022/07/18 05:40:05;;;;;;;3.17;2.00;;;;;;;14.19;51.47;101718.50;4973075;28;20058;-32
2022/07/18 05:42:30;;;;;;;3.03;1.77;;;;;;;14.29;51.37;101721.97;4955847;28;20018;-28
2022/07/18 05:44:56;;;;;;;3.00;2.22;;;;;;;14.35;51.37;101718.38;4980753;28;20084;-32
2022/07/18 05:47:21;;;;;;;2.38;1.70;;;;;;;14.42;52.32;101733.38;4992433;28;20547;-31
2022/07/18 05:49:46;;;;;;;1.90;1.52;;;;;;;14.49;52.05;101732.41;4992361;28;20422;-31
2022/07/18 05:52:12;;;;;;;2.00;1.60;;;;;;;14.56;51.84;101733.25;4991543;28;20030;-32
2022/07/18 05:54:37;;;;;;;2.33;1.63;;;;;;;14.64;51.70;101725.19;4974414;28;20038;-31
2022/07/18 05:57:03;;;;;;;2.70;1.90;;;;;;;14.72;51.99;101733.09;4991480;28;20053;-31
2022/07/18 05:59:28;;;;;;;2.70;1.90;;;;;;;14.82;51.84;101736.56;4987164;28;20015;-32
2022/07/18 06:01:53;;;;;;;1.92;1.75;;;;;;;14.90;51.63;101725.88;4979010;28;20411;-31
2022/07/18 06:04:19;;;;;;;3.13;1.50;;;;;;;14.98;51.77;101727.53;4984107;28;20031;-32
2022/07/18 06:06:44;;;;;;;2.38;1.83;;;;;;;15.07;51.80;101736.34;4992247;28;20054;-32
2022/07/18 06:09:12;;;;;;;2.55;1.77;;;;;;;15.17;51.40;101730.00;4992896;28;20437;-31
2022/07/18 06:11:38;;;;;;;2.05;1.52;;;;;;;15.27;51.78;101731.66;4993072;28;20475;-32
2022/07/18 06:14:05;;;;;;;3.08;2.00;;;;;;;15.37;51.41;101731.53;4992928;28;20033;-32
2022/07/18 06:16:31;;;;;;;1.85;1.60;;;;;;;15.46;51.15;101736.75;4976543;28;20466;-31
2022/07/18 06:18:58;;;;;;;2.58;1.77;;;;;;;15.59;51.11;101737.47;4994539;28;20518;-32
2022/07/18 06:21:23;;;;;;;3.90;1.90;;;;;;;15.72;51.15;101732.88;5009860;28;20022;-32
2022/07/18 06:23:51;;;;;;;2.17;1.98;;;;;;;15.85;50.91;101722.06;4995923;28;20108;-32
2022/07/18 06:26:16;;;;;;;2.80;2.42;;;;;;;15.96;50.85;101717.50;4995900;28;20028;-32
2022/07/18 06:28:43;;;;;;;2.40;1.65;;;;;;;16.08;50.38;101720.88;4997076;28;20038;-32
2022/07/18 06:31:11;;;;;;;1.50;1.40;;;;;;;16.21;50.48;101716.22;4998036;28;20033;-28
2022/07/18 06:33:36;;;;;;;5.03;1.63;;;;;;;16.34;50.47;101717.78;4980711;28;20109;-29
2022/07/18 06:36:02;;;;;;;2.03;1.83;;;;;;;16.47;50.46;101715.78;5000425;28;20087;-29
2022/07/18 06:38:28;;;;;;;2.15;1.77;;;;;;;16.57;50.23;101721.81;4995596;28;20032;-29
2022/07/18 06:40:53;;;;;;;2.97;1.70;;;;;;;16.71;50.22;101723.38;4984175;28;20030;-29
2022/07/18 06:43:21;;;;;;;3.45;2.00;;;;;;;16.86;50.15;101727.53;4983152;28;20058;-29
2022/07/18 06:45:47;;;;;;;2.90;1.70;;;;;;;17.01;50.24;101718.38;4996744;28;20037;-29
2022/07/18 06:48:15;;;;;;;3.13;2.13;;;;;;;17.14;49.90;101717.25;4997526;28;20030;-29
2022/07/18 06:50:42;;;;;;;2.20;2.00;;;;;;;17.25;49.74;101722.38;5000409;28;20384;-29
2022/07/18 06:53:08;;;;;;;2.97;1.52;;;;;;;17.40;49.59;101725.63;4982175;28;20110;-29
2022/07/18 06:55:35;;;;;;;3.53;1.90;;;;;;;17.53;49.23;101719.13;4982193;28;20137;-29
2022/07/18 06:58:01;;;;;;;4.03;2.10;;;;;;;17.66;49.31;101713.50;4991858;28;20027;-29
2022/07/18 07:00:27;;;;;;;2.03;1.73;;;;;;;17.80;49.27;101719.41;4979894;28;20030;-29
2022/07/18 07:02:52;;;;;;;3.33;2.25;;;;;;;17.92;49.15;101714.72;4978176;28;20027;-29
2022/07/18 07:05:19;;;;;;;2.53;2.20;;;;;;;18.06;49.33;101712.59;4985479;28;20045;-29
2022/07/18 07:07:45;;;;;;;1.95;1.75;;;;;;;18.22;48.56;101714.94;4997237;28;20022;-29
2022/07/18 07:10:11;;;;;;;3.90;2.38;;;;;;;18.41;49.21;101704.63;4997000;28;20030;-29
2022/07/18 07:12:41;;;;;;;3.92;1.98;;;;;;;18.58;48.92;101714.03;4979067;28;20030;-30
2022/07/18 07:15:08;;;;;;;2.72;1.80;;;;;;;18.70;48.82;101710.13;4991141;28;20414;-29
2022/07/18 07:17:33;;;;;;;2.55;1.75;;;;;;;18.85;48.59;101716.88;4976040;28;20090;-29
2022/07/18 07:19:58;;;;;;;2.88;2.00;;;;;;;19.02;48.54;101712.84;4974998;28;20426;-29
2022/07/18 07:22:24;;;;;;;2.90;1.70;;;;;;;19.16;48.49;101709.81;4976968;28;20054;-29
2022/07/18 07:24:49;;;;;;;2.15;1.95;;;;;;;19.31;48.54;101705.81;4990063;28;20054;-29
2022/07/18 07:27:14;;;;;;;3.15;1.90;;;;;;;19.46;48.03;101707.16;4996086;28;20399;-29
2022/07/18 07:29:40;;;;;;;2.80;2.05;;;;;;;19.61;47.78;101703.16;4994138;28;20399;-29
2022/07/18 07:32:05;;;;;;;3.63;2.10;;;;;;;19.76;47.65;101709.81;4976581;28;20509;-29
2022/07/18 07:34:31;;;;;;;6.20;2.08;;;;;;;19.96;47.95;101705.63;4976095;28;20384;-29
2022/07/18 07:36:56;;;;;;;3.45;1.85;;;;;;;20.10;47.63;101702.53;4975743;28;20106;-29
2022/07/18 07:39:22;;;;;;;1.95;1.73;;;;;;;20.25;47.16;101709.19;4974244;28;20531;-29
2022/07/18 07:41:47;;;;;;;2.38;1.67;;;;;;;20.40;47.40;101699.75;4974087;28;20037;-29
2022/07/18 07:44:12;;;;;;;3.38;2.00;;;;;;;20.56;46.39;101701.88;4974091;28;20031;-29
2022/07/18 07:46:38;;;;;;;2.28;1.85;;;;;;;20.70;46.45;101702.28;4958076;28;20031;-29
2022/07/18 07:49:03;;;;;;;2.25;1.85;;;;;;;20.85;46.58;101695.50;4974055;28;20030;-29
2022/07/18 07:51:28;;;;;;;3.22;1.88;;;;;;;21.02;46.04;101697.59;4974442;28;20037;-29
2022/07/18 07:53:54;;;;;;;2.35;1.48;;;;;;;21.17;46.08;101697.94;4981496;28;20030;-29
2022/07/18 07:56:19;;;;;;;1.80;1.60;;;;;;;21.33;46.50;101695.56;4993616;28;20030;-29
2022/07/18 07:58:45;;;;;;;2.55;1.50;;;;;;;21.46;45.53;101685.22;4994671;28;20053;-29
2022/07/18 08:01:11;;;;;;;3.92;1.83;;;;;;;21.61;45.84;101683.72;4994524;28;20031;-29
2022/07/18 08:03:37;;;;;;;1.90;1.58;;;;;;;21.78;45.43;101676.84;4988813;28;20026;-29
2022/07/18 08:06:03;;;;;;;2.13;1.70;;;;;;;21.92;45.01;101676.28;4994090;28;20074;-29
2022/07/18 08:08:28;;;;;;;2.65;1.70;;;;;;;22.05;44.77;101672.13;4994270;28;20065;-29
2022/07/18 08:10:53;;;;;;;2.30;1.75;;;;;;;22.21;44.76;101670.63;4990093;28;20023;-29
2022/07/18 08:13:19;;;;;;;1.58;1.48;;;;;;;22.36;44.23;101658.34;4985661;28;20105;-29
2022/07/18 08:15:44;;;;;;;2.45;1.50;;;;;;;22.53;44.59;101663.88;4974767;28;20051;-29
2022/07/18 08:18:10;;;;;;;3.72;1.55;;;;;;;22.68;43.93;101673.06;4974859;28;20035;-29
2022/07/18 08:20:35;;;;;;;1.65;1.55;;;;;;;22.84;44.06;101664.31;4976141;28;20468;-29
2022/07/18 08:23:06;;;;;;;5.38;2.40;;;;;;;23.03;43.70;101666.16;4981053;28;20034;-29
2022/07/18 08:25:33;;;;;;;2.13;1.50;;;;;;;23.19;43.36;101669.03;4973841;28;20046;-29
2022/07/18 08:27:59;;;;;;;3.95;1.70;;;;;;;23.33;43.51;101655.81;4979126;28;20431;-29
2022/07/18 08:30:25;;;;;;;3.38;1.70;;;;;;;23.53;42.62;101658.50;4993027;28;20387;-29
2022/07/18 08:32:50;;;;;;;1.98;1.27;;;;;;;23.61;42.93;101652.75;4993828;28;20030;-29
2022/07/18 08:35:16;;;;;;;1.38;1.20;;;;;;;23.64;42.75;101664.22;4993580;28;20022;-29
2022/07/18 08:37:41;;;;;;;1.40;1.20;;;;;;;23.78;43.15;101660.00;4994167;28;20315;-29
2022/07/18 08:40:08;;;;;;;3.15;1.55;;;;;;;23.95;42.67;101657.31;4992583;28;20026;-29
2022/07/18 08:42:34;;;;;;;3.20;1.60;;;;;;;24.21;41.78;101662.38;4994111;28;20182;-29
2022/07/18 08:44:59;;;;;;;1.83;1.52;;;;;;;24.30;41.67;101650.22;4993951;28;20149;-29
2022/07/18 08:47:26;;;;;;;4.65;1.55;;;;;;;24.36;41.92;101649.91;4976109;28;20101;-29
2022/07/18 08:49:52;;;;;;;1.40;1.30;;;;;;;24.50;41.86;101656.44;4993641;28;20026;-29
2022/07/18 08:52:19;;;;;;;3.85;1.30;;;;;;;24.65;41.74;101649.31;4993615;28;20483;-29
2022/07/18 08:54:44;;;;;;;4.22;1.65;;;;;;;24.88;41.13;101650.81;4991667;28;20109;-29
2022/07/18 08:57:10;;;;;;;1.83;1.25;;;;;;;24.96;41.09;101651.28;4992145;28;20530;-28
2022/07/18 08:59:35;;;;;;;3.58;1.85;;;;;;;25.05;41.46;101659.81;4993752;28;20371;-28
2022/07/18 09:02:01;;;;;;;2.08;1.40;;;;;;;25.19;41.19;101659.03;4993925;28;20110;-28
2022/07/18 09:04:40;;;;;;;2.03;1.52;;;;;;;25.32;40.78;101657.41;4980960;28;20030;-28
2022/07/18 09:07:08;;;;;;;3.33;1.50;;;;;;;25.42;40.88;101655.06;4972627;28;20019;-28
2022/07/18 09:09:38;;;;;;;3.65;1.90;;;;;;;25.61;41.02;101649.50;4972767;28;20050;-28
2022/07/18 09:12:09;;;;;;;1.90;1.10;;;;;;;25.80;40.32;101655.69;4972900;28;20113;-28
2022/07/18 09:14:44;;;;;;;2.42;1.55;;;;;;;25.96;39.97;101648.41;4973659;28;20471;-28
2022/07/18 09:17:13;;;;;;;2.50;1.70;;;;;;;26.08;39.42;101651.31;4972428;28;20579;-28
2022/07/18 09:19:41;;;;;;;1.58;1.17;;;;;;;26.13;39.42;101639.28;4980082;28;20034;-28
2022/07/18 09:22:17;;;;;;;2.42;1.48;;;;;;;26.29;39.72;101646.50;4973263;28;20165;-28
2022/07/18 09:25:04;;;;;;;3.75;1.85;;;;;;;26.43;39.14;101651.06;4972322;28;20023;-28
2022/07/18 09:27:30;;;;;;;2.78;1.50;;;;;;;26.55;38.64;101651.25;4973696;28;20541;-29
2022/07/18 09:30:29;;;;;;;3.08;1.67;;;;;;;26.67;39.01;101657.75;4972900;28;20053;-29
2022/07/18 09:33:04;;;;;;;1.80;1.58;;;;;;;26.72;38.77;101648.38;4965728;28;20037;-28
2022/07/18 09:35:46;;;;;;;1.50;1.40;;;;;;;26.82;39.29;101640.56;4992327;28;20063;-28
2022/07/18 09:38:14;;;;;;;2.65;1.52;;;;;;;26.90;38.93;101642.75;4979029;28;20041;-28
2022/07/18 09:40:47;;;;;;;2.08;1.13;;;;;;;26.98;38.66;101635.03;4974156;28;20482;-29
2022/07/18 09:43:19;;;;;;;3.13;1.35;;;;;;;27.13;39.04;101643.16;4973393;28;20035;-29
2022/07/18 09:45:47;;;;;;;4.78;1.40;;;;;;;27.26;38.50;101645.94;4973805;28;20390;-28
2022/07/18 09:48:14;;;;;;;2.30;1.45;;;;;;;27.39;38.77;101640.59;4973649;28;20059;-28
2022/07/18 09:50:51;;;;;;;2.53;1.55;;;;;;;27.48;38.29;101644.53;4973567;28;20031;-28
2022/07/18 09:53:20;;;;;;;2.25;1.48;;;;;;;27.61;38.28;101647.31;4991563;28;20053;-28
2022/07/18 09:55:51;;;;;;;3.33;1.58;;;;;;;27.74;37.95;101647.41;4993237;28;20023;-28
2022/07/18 09:58:30;;;;;;;2.70;1.55;;;;;;;27.87;37.84;101652.84;4992734;28;20080;-29
2022/07/18 10:00:56;;;;;;;2.50;1.23;;;;;;;27.90;37.55;101641.78;4993055;28;20026;-29
2022/07/18 10:03:23;;;;;;;1.90;1.50;;;;;;;28.05;37.08;101639.88;4991954;28;20120;-29
2022/07/18 10:05:50;;;;;;;1.73;1.40;;;;;;;28.20;36.83;101642.53;4992295;28;20138;-29
2022/07/18 10:08:18;;;;;;;2.47;1.60;;;;;;;28.25;37.01;101641.22;4992702;28;20069;-29
2022/07/18 10:10:45;;;;;;;2.67;1.70;;;;;;;28.26;37.33;101640.25;4991195;28;20026;-29
2022/07/18 10:13:11;;;;;;;1.80;1.58;;;;;;;28.30;36.99;101639.09;4991448;28;20124;-29
2022/07/18 10:15:39;;;;;;;2.78;1.52;;;;;;;28.33;36.09;101637.13;4991259;28;20050;-29
2022/07/18 10:18:07;;;;;;;2.08;1.73;;;;;;;28.47;36.61;101638.88;4991107;28;20038;-29
2022/07/18 10:20:43;;;;;;;4.18;1.42;;;;;;;28.62;36.24;101639.63;4983126;28;20066;-29
2022/07/18 10:23:19;;;;;;;1.65;1.40;;;;;;;28.75;35.68;101616.06;4977439;28;20030;-29
2022/07/18 10:25:45;;;;;;;5.03;1.73;;;;;;;28.76;36.30;101623.22;4991678;28;20018;-29
2022/07/18 10:28:12;;;;;;;3.92;1.90;;;;;;;28.87;36.15;101627.88;4987068;28;20566;-29
2022/07/18 10:30:46;;;;;;;1.85;1.50;;;;;;;28.94;35.62;101626.47;4992228;28;20549;-29
2022/07/18 10:33:37;;;;;;;2.72;1.75;;;;;;;29.19;34.34;101623.81;4981994;28;20037;-29
2022/07/18 10:36:08;;;;;;;5.40;1.80;;;;;;;29.29;33.05;101619.44;4972989;28;20155;-29
2022/07/18 10:38:33;;;;;;;2.08;1.58;;;;;;;29.38;32.64;101617.03;4972161;28;20031;-29
2022/07/18 10:41:11;;;;;;;2.22;1.50;;;;;;;29.45;33.10;101612.88;4973738;28;20042;-29
2022/07/18 10:43:38;;;;;;;1.67;1.58;;;;;;;29.55;32.66;101613.94;4939698;28;20034;-28
2022/07/18 10:46:05;;;;;;;4.57;1.70;;;;;;;29.60;32.39;101615.44;4972836;28;20054;-28
2022/07/18 10:48:33;;;;;;;2.50;1.50;;;;;;;29.61;32.54;101612.59;4989087;28;20026;-28
2022/07/18 10:51:17;;;;;;;1.55;1.35;;;;;;;29.57;32.97;101601.09;4992039;28;20026;-28
2022/07/18 10:53:56;;;;;;;4.35;1.70;;;;;;;29.56;33.37;101603.91;4992075;28;20104;-28
2022/07/18 10:56:27;;;;;;;3.85;1.63;;;;;;;29.76;32.72;101599.69;4992468;28;20057;-28
2022/07/18 10:58:55;;;;;;;2.65;1.77;;;;;;;29.83;32.59;101606.38;4990482;28;20121;-28
2022/07/18 11:01:22;;;;;;;1.80;1.67;;;;;;;29.82;32.70;101611.94;4990205;28;20030;-28
2022/07/18 11:03:49;;;;;;;3.03;1.90;;;;;;;29.88;34.04;101605.16;4991842;28;20041;-28
2022/07/18 11:06:14;;;;;;;1.77;1.58;;;;;;;29.93;33.02;101606.53;4991904;28;20105;-28
2022/07/18 11:08:40;;;;;;;1.30;1.20;;;;;;;30.00;33.49;101601.47;4974408;28;20105;-28
2022/07/18 11:11:08;;;;;;;1.60;1.50;;;;;;;30.02;32.88;101604.09;4991911;28;20477;-28
2022/07/18 11:13:35;;;;;;;1.95;1.45;;;;;;;30.11;33.45;101592.50;5006838;28;20124;-28
2022/07/18 11:16:35;;;;;;;3.88;1.60;;;;;;;30.29;32.28;101587.50;4994826;28;20030;-28
2022/07/18 11:19:00;;;;;;;3.95;1.98;;;;;;;30.40;32.63;101580.34;5012190;28;20046;-28
2022/07/18 11:21:28;;;;;;;2.70;1.77;;;;;;;30.43;31.17;101591.81;5015151;28;20057;-28
2022/07/18 11:23:58;;;;;;;2.25;1.73;;;;;;;30.51;31.76;101588.47;5014000;28;20671;-28
2022/07/18 11:26:24;;;;;;;2.05;1.67;;;;;;;30.62;30.69;101592.19;5014802;28;20038;-28